Terminal Aerodrome Forecast
Issued by NWS

Home | Current Version | Previous Version | Text Only | Print | Product List | Glossary On
Versions: 1 2 3 4 5 6 7 8 9 10 11 12 13 14 15 16 17 18 19 20
000
FTUS42 KTBW 031000 AAA
TAFRSW
TAF AMD
KRSW 031008Z 0310/0406 06003KT P6SM SCT010
      TEMPO 0310/0312 3SM BR BKN010
     FM031400 10010KT P6SM SCT010 SCT250
     FM031600 13012KT P6SM SCT030 SCT250
     FM040000 VRB05KT P6SM SCT005 SCT250=

USA.gov is the U.S. government's official web portal to all federal, state and local government web resources and services.